sensor_id;sensor_type;location;lat;lon;timestamp;P1;durP1;ratioP1;P2;durP2;ratioP2
18383;SDS011;9318;48.644;9.456;2023-04-30T00:01:59;0.90;;;0.90;;
18383;SDS011;9318;48.644;9.456;2023-04-30T00:04:27;0.80;;;0.80;;
18383;SDS011;9318;48.644;9.456;2023-04-30T00:06:54;0.80;;;0.80;;
18383;SDS011;9318;48.644;9.456;2023-04-30T00:09:21;0.80;;;0.80;;
18383;SDS011;9318;48.644;9.456;2023-04-30T00:11:48;0.60;;;0.60;;
18383;SDS011;9318;48.644;9.456;2023-04-30T00:14:14;0.70;;;0.70;;
18383;SDS011;9318;48.644;9.456;2023-04-30T00:16:41;0.80;;;0.80;;
18383;SDS011;9318;48.644;9.456;2023-04-30T00:19:08;0.80;;;0.80;;
18383;SDS011;9318;48.644;9.456;2023-04-30T00:21:36;0.90;;;0.90;;
18383;SDS011;9318;48.644;9.456;2023-04-30T00:24:03;0.80;;;0.80;;
18383;SDS011;9318;48.644;9.456;2023-04-30T00:26:30;0.90;;;0.90;;
18383;SDS011;9318;48.644;9.456;2023-04-30T00:28:57;0.70;;;0.70;;
18383;SDS011;9318;48.644;9.456;2023-04-30T00:31:23;0.90;;;0.90;;
18383;SDS011;9318;48.644;9.456;2023-04-30T00:33:50;0.80;;;0.80;;
18383;SDS011;9318;48.644;9.456;2023-04-30T00:36:17;0.80;;;0.80;;
18383;SDS011;9318;48.644;9.456;2023-04-30T00:38:45;0.80;;;0.80;;
18383;SDS011;9318;48.644;9.456;2023-04-30T00:41:12;0.90;;;0.90;;
18383;SDS011;9318;48.644;9.456;2023-04-30T00:43:38;0.80;;;0.80;;
18383;SDS011;9318;48.644;9.456;2023-04-30T00:46:05;0.90;;;0.90;;
18383;SDS011;9318;48.644;9.456;2023-04-30T00:48:32;0.80;;;0.80;;
18383;SDS011;9318;48.644;9.456;2023-04-30T00:51:00;0.90;;;0.90;;
18383;SDS011;9318;48.644;9.456;2023-04-30T00:53:28;0.80;;;0.80;;
18383;SDS011;9318;48.644;9.456;2023-04-30T00:55:56;0.90;;;0.90;;
18383;SDS011;9318;48.644;9.456;2023-04-30T00:58:22;0.80;;;0.80;;
18383;SDS011;9318;48.644;9.456;2023-04-30T01:00:49;0.80;;;0.80;;
18383;SDS011;9318;48.644;9.456;2023-04-30T01:03:17;0.70;;;0.70;;
18383;SDS011;9318;48.644;9.456;2023-04-30T01:05:43;0.80;;;0.80;;
18383;SDS011;9318;48.644;9.456;2023-04-30T01:08:10;0.90;;;0.90;;
18383;SDS011;9318;48.644;9.456;2023-04-30T01:10:39;0.80;;;0.80;;
18383;SDS011;9318;48.644;9.456;2023-04-30T01:13:14;0.90;;;0.90;;
18383;SDS011;9318;48.644;9.456;2023-04-30T01:15:50;0.90;;;0.90;;
18383;SDS011;9318;48.644;9.456;2023-04-30T01:18:24;0.80;;;0.80;;
18383;SDS011;9318;48.644;9.456;2023-04-30T01:20:58;0.80;;;0.80;;
18383;SDS011;9318;48.644;9.456;2023-04-30T01:23:32;0.80;;;0.80;;
18383;SDS011;9318;48.644;9.456;2023-04-30T01:26:10;0.90;;;0.90;;
18383;SDS011;9318;48.644;9.456;2023-04-30T01:28:42;0.80;;;0.80;;
18383;SDS011;9318;48.644;9.456;2023-04-30T01:31:12;0.87;;;0.87;;
18383;SDS011;9318;48.644;9.456;2023-04-30T01:33:39;0.87;;;0.87;;
18383;SDS011;9318;48.644;9.456;2023-04-30T01:39:26;0.90;;;0.90;;
18383;SDS011;9318;48.644;9.456;2023-04-30T01:42:04;0.90;;;0.90;;
18383;SDS011;9318;48.644;9.456;2023-04-30T01:44:42;0.90;;;0.90;;
18383;SDS011;9318;48.644;9.456;2023-04-30T01:47:21;0.83;;;0.83;;
18383;SDS011;9318;48.644;9.456;2023-04-30T01:49:56;0.90;;;0.90;;
18383;SDS011;9318;48.644;9.456;2023-04-30T01:52:31;0.90;;;0.90;;
18383;SDS011;9318;48.644;9.456;2023-04-30T01:55:11;0.90;;;0.90;;
18383;SDS011;9318;48.644;9.456;2023-04-30T01:57:40;0.93;;;0.93;;
18383;SDS011;9318;48.644;9.456;2023-04-30T02:00:11;0.80;;;0.80;;
18383;SDS011;9318;48.644;9.456;2023-04-30T02:02:39;0.90;;;0.90;;
18383;SDS011;9318;48.644;9.456;2023-04-30T02:05:06;0.90;;;0.90;;
18383;SDS011;9318;48.644;9.456;2023-04-30T02:07:36;0.90;;;0.90;;
18383;SDS011;9318;48.644;9.456;2023-04-30T02:10:05;0.90;;;0.90;;
18383;SDS011;9318;48.644;9.456;2023-04-30T02:12:33;1.00;;;1.00;;
18383;SDS011;9318;48.644;9.456;2023-04-30T02:15:00;0.90;;;0.90;;
18383;SDS011;9318;48.644;9.456;2023-04-30T02:17:29;0.90;;;0.90;;
18383;SDS011;9318;48.644;9.456;2023-04-30T02:19:56;1.00;;;1.00;;
18383;SDS011;9318;48.644;9.456;2023-04-30T02:22:23;0.90;;;0.90;;
18383;SDS011;9318;48.644;9.456;2023-04-30T02:24:49;0.90;;;0.90;;
18383;SDS011;9318;48.644;9.456;2023-04-30T02:27:19;0.90;;;0.90;;
18383;SDS011;9318;48.644;9.456;2023-04-30T02:29:46;0.90;;;0.90;;
18383;SDS011;9318;48.644;9.456;2023-04-30T02:32:13;0.93;;;0.93;;
18383;SDS011;9318;48.644;9.456;2023-04-30T02:34:41;0.90;;;0.90;;
18383;SDS011;9318;48.644;9.456;2023-04-30T02:37:08;1.00;;;1.00;;
18383;SDS011;9318;48.644;9.456;2023-04-30T02:39:35;1.00;;;1.00;;
18383;SDS011;9318;48.644;9.456;2023-04-30T02:42:02;0.93;;;0.93;;
18383;SDS011;9318;48.644;9.456;2023-04-30T02:44:30;1.00;;;1.00;;
18383;SDS011;9318;48.644;9.456;2023-04-30T02:46:57;0.87;;;0.87;;
18383;SDS011;9318;48.644;9.456;2023-04-30T02:49:24;1.00;;;1.00;;
18383;SDS011;9318;48.644;9.456;2023-04-30T02:51:53;1.00;;;1.00;;
18383;SDS011;9318;48.644;9.456;2023-04-30T02:54:19;0.90;;;0.90;;
18383;SDS011;9318;48.644;9.456;2023-04-30T02:56:46;0.90;;;0.90;;
18383;SDS011;9318;48.644;9.456;2023-04-30T02:59:13;1.00;;;1.00;;
18383;SDS011;9318;48.644;9.456;2023-04-30T03:01:39;0.90;;;0.90;;
18383;SDS011;9318;48.644;9.456;2023-04-30T03:04:06;0.90;;;0.90;;
18383;SDS011;9318;48.644;9.456;2023-04-30T03:06:33;0.90;;;0.90;;
18383;SDS011;9318;48.644;9.456;2023-04-30T03:09:01;0.90;;;0.90;;
18383;SDS011;9318;48.644;9.456;2023-04-30T03:11:28;0.90;;;0.90;;
18383;SDS011;9318;48.644;9.456;2023-04-30T03:13:55;0.90;;;0.90;;
18383;SDS011;9318;48.644;9.456;2023-04-30T03:16:21;0.90;;;0.90;;
18383;SDS011;9318;48.644;9.456;2023-04-30T03:18:48;0.90;;;0.90;;
18383;SDS011;9318;48.644;9.456;2023-04-30T03:21:15;0.90;;;0.90;;
18383;SDS011;9318;48.644;9.456;2023-04-30T03:23:42;0.90;;;0.90;;
18383;SDS011;9318;48.644;9.456;2023-04-30T03:26:10;0.90;;;0.90;;
18383;SDS011;9318;48.644;9.456;2023-04-30T03:28:36;0.83;;;0.83;;
18383;SDS011;9318;48.644;9.456;2023-04-30T03:31:03;0.90;;;0.90;;
18383;SDS011;9318;48.644;9.456;2023-04-30T03:33:30;0.90;;;0.90;;
18383;SDS011;9318;48.644;9.456;2023-04-30T03:35:57;0.87;;;0.87;;
18383;SDS011;9318;48.644;9.456;2023-04-30T03:38:23;0.90;;;0.90;;
18383;SDS011;9318;48.644;9.456;2023-04-30T03:40:50;0.90;;;0.90;;
18383;SDS011;9318;48.644;9.456;2023-04-30T03:43:18;1.10;;;1.10;;
18383;SDS011;9318;48.644;9.456;2023-04-30T03:45:45;0.90;;;0.90;;
18383;SDS011;9318;48.644;9.456;2023-04-30T03:48:12;0.90;;;0.90;;
18383;SDS011;9318;48.644;9.456;2023-04-30T03:50:38;0.90;;;0.90;;
18383;SDS011;9318;48.644;9.456;2023-04-30T03:53:05;0.90;;;0.90;;
18383;SDS011;9318;48.644;9.456;2023-04-30T03:55:32;0.80;;;0.80;;
18383;SDS011;9318;48.644;9.456;2023-04-30T03:57:59;0.90;;;0.90;;
18383;SDS011;9318;48.644;9.456;2023-04-30T04:00:28;0.80;;;0.80;;
18383;SDS011;9318;48.644;9.456;2023-04-30T04:02:56;0.90;;;0.90;;
18383;SDS011;9318;48.644;9.456;2023-04-30T04:05:23;0.90;;;0.90;;
18383;SDS011;9318;48.644;9.456;2023-04-30T04:07:50;0.90;;;0.90;;
18383;SDS011;9318;48.644;9.456;2023-04-30T04:10:16;0.90;;;0.90;;
18383;SDS011;9318;48.644;9.456;2023-04-30T04:12:44;0.90;;;0.90;;
18383;SDS011;9318;48.644;9.456;2023-04-30T04:15:11;0.80;;;0.80;;
18383;SDS011;9318;48.644;9.456;2023-04-30T04:17:39;0.90;;;0.90;;
18383;SDS011;9318;48.644;9.456;2023-04-30T04:20:06;0.90;;;0.90;;
18383;SDS011;9318;48.644;9.456;2023-04-30T04:22:34;0.90;;;0.90;;
18383;SDS011;9318;48.644;9.456;2023-04-30T04:25:00;1.10;;;1.10;;
18383;SDS011;9318;48.644;9.456;2023-04-30T04:27:27;1.00;;;1.00;;
18383;SDS011;9318;48.644;9.456;2023-04-30T04:29:54;0.93;;;0.93;;
18383;SDS011;9318;48.644;9.456;2023-04-30T04:32:21;0.90;;;0.90;;
18383;SDS011;9318;48.644;9.456;2023-04-30T04:34:50;0.90;;;0.90;;
18383;SDS011;9318;48.644;9.456;2023-04-30T04:37:18;0.80;;;0.80;;
18383;SDS011;9318;48.644;9.456;2023-04-30T04:39:45;1.00;;;1.00;;
18383;SDS011;9318;48.644;9.456;2023-04-30T04:42:11;0.90;;;0.90;;
18383;SDS011;9318;48.644;9.456;2023-04-30T04:44:39;1.20;;;1.20;;
18383;SDS011;9318;48.644;9.456;2023-04-30T04:47:06;0.90;;;0.90;;
18383;SDS011;9318;48.644;9.456;2023-04-30T04:49:34;0.90;;;0.90;;
18383;SDS011;9318;48.644;9.456;2023-04-30T04:52:02;0.90;;;0.90;;
18383;SDS011;9318;48.644;9.456;2023-04-30T04:54:29;0.90;;;0.90;;
18383;SDS011;9318;48.644;9.456;2023-04-30T04:56:56;0.90;;;0.90;;
18383;SDS011;9318;48.644;9.456;2023-04-30T04:59:23;0.80;;;0.80;;
18383;SDS011;9318;48.644;9.456;2023-04-30T05:01:50;0.80;;;0.80;;
18383;SDS011;9318;48.644;9.456;2023-04-30T05:04:17;0.83;;;0.83;;
18383;SDS011;9318;48.644;9.456;2023-04-30T05:06:44;0.90;;;0.90;;
18383;SDS011;9318;48.644;9.456;2023-04-30T05:09:12;0.90;;;0.90;;
18383;SDS011;9318;48.644;9.456;2023-04-30T05:11:38;0.83;;;0.83;;
18383;SDS011;9318;48.644;9.456;2023-04-30T05:14:05;0.80;;;0.80;;
18383;SDS011;9318;48.644;9.456;2023-04-30T05:16:32;0.83;;;0.83;;
18383;SDS011;9318;48.644;9.456;2023-04-30T05:18:59;0.80;;;0.80;;
18383;SDS011;9318;48.644;9.456;2023-04-30T05:21:25;0.83;;;0.83;;
18383;SDS011;9318;48.644;9.456;2023-04-30T05:23:53;0.80;;;0.80;;
18383;SDS011;9318;48.644;9.456;2023-04-30T05:26:21;0.80;;;0.80;;
18383;SDS011;9318;48.644;9.456;2023-04-30T05:28:48;0.83;;;0.83;;
18383;SDS011;9318;48.644;9.456;2023-04-30T05:31:16;0.80;;;0.80;;
18383;SDS011;9318;48.644;9.456;2023-04-30T05:33:43;0.70;;;0.70;;
18383;SDS011;9318;48.644;9.456;2023-04-30T05:36:09;0.63;;;0.63;;
18383;SDS011;9318;48.644;9.456;2023-04-30T05:38:36;0.80;;;0.80;;
18383;SDS011;9318;48.644;9.456;2023-04-30T05:41:03;0.90;;;0.90;;
18383;SDS011;9318;48.644;9.456;2023-04-30T05:43:31;0.80;;;0.80;;
18383;SDS011;9318;48.644;9.456;2023-04-30T05:45:58;0.80;;;0.80;;
18383;SDS011;9318;48.644;9.456;2023-04-30T05:48:25;0.83;;;0.83;;
18383;SDS011;9318;48.644;9.456;2023-04-30T05:50:52;0.87;;;0.87;;
18383;SDS011;9318;48.644;9.456;2023-04-30T05:53:19;0.90;;;0.90;;
18383;SDS011;9318;48.644;9.456;2023-04-30T05:55:45;0.80;;;0.80;;
18383;SDS011;9318;48.644;9.456;2023-04-30T05:58:12;0.87;;;0.87;;
18383;SDS011;9318;48.644;9.456;2023-04-30T06:00:40;0.90;;;0.90;;
18383;SDS011;9318;48.644;9.456;2023-04-30T06:03:07;0.87;;;0.87;;
18383;SDS011;9318;48.644;9.456;2023-04-30T06:05:34;0.70;;;0.70;;
18383;SDS011;9318;48.644;9.456;2023-04-30T06:08:01;0.80;;;0.80;;
18383;SDS011;9318;48.644;9.456;2023-04-30T06:10:28;0.90;;;0.90;;
18383;SDS011;9318;48.644;9.456;2023-04-30T06:12:55;0.90;;;0.90;;
18383;SDS011;9318;48.644;9.456;2023-04-30T06:15:22;0.80;;;0.80;;
18383;SDS011;9318;48.644;9.456;2023-04-30T06:17:50;0.80;;;0.80;;
18383;SDS011;9318;48.644;9.456;2023-04-30T06:20:17;0.90;;;0.90;;
18383;SDS011;9318;48.644;9.456;2023-04-30T06:22:44;0.80;;;0.80;;
18383;SDS011;9318;48.644;9.456;2023-04-30T06:25:11;0.70;;;0.70;;
18383;SDS011;9318;48.644;9.456;2023-04-30T06:27:37;0.80;;;0.80;;
18383;SDS011;9318;48.644;9.456;2023-04-30T06:30:05;0.70;;;0.70;;
18383;SDS011;9318;48.644;9.456;2023-04-30T06:32:32;0.70;;;0.70;;
18383;SDS011;9318;48.644;9.456;2023-04-30T06:35:01;0.60;;;0.60;;
18383;SDS011;9318;48.644;9.456;2023-04-30T06:37:28;0.70;;;0.70;;
18383;SDS011;9318;48.644;9.456;2023-04-30T06:39:59;0.60;;;0.60;;
18383;SDS011;9318;48.644;9.456;2023-04-30T06:42:26;0.60;;;0.60;;
18383;SDS011;9318;48.644;9.456;2023-04-30T06:44:58;0.80;;;0.80;;
18383;SDS011;9318;48.644;9.456;2023-04-30T06:47:25;0.70;;;0.70;;
18383;SDS011;9318;48.644;9.456;2023-04-30T06:49:51;0.60;;;0.60;;
18383;SDS011;9318;48.644;9.456;2023-04-30T06:52:19;0.60;;;0.60;;
18383;SDS011;9318;48.644;9.456;2023-04-30T06:54:46;0.60;;;0.60;;
18383;SDS011;9318;48.644;9.456;2023-04-30T06:57:13;0.60;;;0.60;;
18383;SDS011;9318;48.644;9.456;2023-04-30T06:59:40;0.60;;;0.60;;
18383;SDS011;9318;48.644;9.456;2023-04-30T07:02:06;0.60;;;0.60;;
18383;SDS011;9318;48.644;9.456;2023-04-30T07:04:33;0.55;;;0.55;;
18383;SDS011;9318;48.644;9.456;2023-04-30T07:07:00;0.55;;;0.55;;
18383;SDS011;9318;48.644;9.456;2023-04-30T07:09:28;0.60;;;0.60;;
18383;SDS011;9318;48.644;9.456;2023-04-30T07:11:56;0.60;;;0.60;;
18383;SDS011;9318;48.644;9.456;2023-04-30T07:14:23;0.50;;;0.50;;
18383;SDS011;9318;48.644;9.456;2023-04-30T07:16:49;0.50;;;0.50;;
18383;SDS011;9318;48.644;9.456;2023-04-30T07:19:16;0.50;;;0.50;;
18383;SDS011;9318;48.644;9.456;2023-04-30T07:21:43;0.50;;;0.50;;
18383;SDS011;9318;48.644;9.456;2023-04-30T07:24:10;0.50;;;0.50;;
18383;SDS011;9318;48.644;9.456;2023-04-30T07:26:38;0.50;;;0.50;;
18383;SDS011;9318;48.644;9.456;2023-04-30T07:29:06;0.50;;;0.50;;
18383;SDS011;9318;48.644;9.456;2023-04-30T07:31:33;0.47;;;0.47;;
18383;SDS011;9318;48.644;9.456;2023-04-30T07:33:59;0.40;;;0.40;;
18383;SDS011;9318;48.644;9.456;2023-04-30T07:36:26;0.38;;;0.38;;
18383;SDS011;9318;48.644;9.456;2023-04-30T07:38:53;0.47;;;0.47;;
18383;SDS011;9318;48.644;9.456;2023-04-30T07:41:19;0.40;;;0.40;;
18383;SDS011;9318;48.644;9.456;2023-04-30T07:43:48;0.40;;;0.40;;
18383;SDS011;9318;48.644;9.456;2023-04-30T07:46:14;0.45;;;0.45;;
18383;SDS011;9318;48.644;9.456;2023-04-30T07:48:41;0.38;;;0.38;;
18383;SDS011;9318;48.644;9.456;2023-04-30T07:51:08;0.40;;;0.40;;
18383;SDS011;9318;48.644;9.456;2023-04-30T07:53:35;0.40;;;0.40;;
18383;SDS011;9318;48.644;9.456;2023-04-30T07:56:02;0.35;;;0.35;;
18383;SDS011;9318;48.644;9.456;2023-04-30T07:58:29;0.50;;;0.50;;
18383;SDS011;9318;48.644;9.456;2023-04-30T08:00:57;0.40;;;0.40;;
18383;SDS011;9318;48.644;9.456;2023-04-30T08:03:24;0.40;;;0.40;;
18383;SDS011;9318;48.644;9.456;2023-04-30T08:05:51;0.40;;;0.40;;
18383;SDS011;9318;48.644;9.456;2023-04-30T08:08:18;0.50;;;0.50;;
18383;SDS011;9318;48.644;9.456;2023-04-30T08:10:44;0.30;;;0.30;;
18383;SDS011;9318;48.644;9.456;2023-04-30T08:13:11;0.50;;;0.50;;
18383;SDS011;9318;48.644;9.456;2023-04-30T08:15:38;0.40;;;0.40;;
18383;SDS011;9318;48.644;9.456;2023-04-30T08:18:06;0.40;;;0.40;;
18383;SDS011;9318;48.644;9.456;2023-04-30T08:20:34;0.50;;;0.50;;
18383;SDS011;9318;48.644;9.456;2023-04-30T08:23:01;0.30;;;0.30;;
18383;SDS011;9318;48.644;9.456;2023-04-30T08:25:28;0.35;;;0.35;;
18383;SDS011;9318;48.644;9.456;2023-04-30T08:27:55;0.32;;;0.32;;
18383;SDS011;9318;48.644;9.456;2023-04-30T08:30:22;0.40;;;0.40;;
18383;SDS011;9318;48.644;9.456;2023-04-30T08:32:49;0.30;;;0.30;;
18383;SDS011;9318;48.644;9.456;2023-04-30T08:35:17;0.30;;;0.30;;
18383;SDS011;9318;48.644;9.456;2023-04-30T08:37:45;0.50;;;0.50;;
18383;SDS011;9318;48.644;9.456;2023-04-30T08:40:11;0.50;;;0.50;;
18383;SDS011;9318;48.644;9.456;2023-04-30T08:42:40;0.50;;;0.50;;
18383;SDS011;9318;48.644;9.456;2023-04-30T08:45:12;0.60;;;0.60;;
18383;SDS011;9318;48.644;9.456;2023-04-30T08:47:40;0.60;;;0.60;;
18383;SDS011;9318;48.644;9.456;2023-04-30T08:50:08;0.55;;;0.55;;
18383;SDS011;9318;48.644;9.456;2023-04-30T08:52:36;0.50;;;0.50;;
18383;SDS011;9318;48.644;9.456;2023-04-30T08:55:06;0.60;;;0.60;;
18383;SDS011;9318;48.644;9.456;2023-04-30T08:57:33;0.60;;;0.60;;
18383;SDS011;9318;48.644;9.456;2023-04-30T09:00:00;0.60;;;0.60;;
18383;SDS011;9318;48.644;9.456;2023-04-30T09:02:27;0.60;;;0.60;;
18383;SDS011;9318;48.644;9.456;2023-04-30T09:04:57;0.50;;;0.50;;
18383;SDS011;9318;48.644;9.456;2023-04-30T09:07:23;0.63;;;0.63;;
18383;SDS011;9318;48.644;9.456;2023-04-30T09:09:54;0.70;;;0.70;;
18383;SDS011;9318;48.644;9.456;2023-04-30T09:12:22;0.60;;;0.60;;
18383;SDS011;9318;48.644;9.456;2023-04-30T09:14:59;0.60;;;0.60;;
18383;SDS011;9318;48.644;9.456;2023-04-30T09:17:27;0.60;;;0.60;;
18383;SDS011;9318;48.644;9.456;2023-04-30T09:19:54;0.70;;;0.70;;
18383;SDS011;9318;48.644;9.456;2023-04-30T09:22:32;0.68;;;0.68;;
18383;SDS011;9318;48.644;9.456;2023-04-30T09:25:01;0.63;;;0.63;;
18383;SDS011;9318;48.644;9.456;2023-04-30T09:27:28;0.60;;;0.60;;
18383;SDS011;9318;48.644;9.456;2023-04-30T09:29:55;0.50;;;0.50;;
18383;SDS011;9318;48.644;9.456;2023-04-30T09:32:22;0.40;;;0.40;;
18383;SDS011;9318;48.644;9.456;2023-04-30T09:34:48;0.50;;;0.50;;
18383;SDS011;9318;48.644;9.456;2023-04-30T09:37:15;0.40;;;0.40;;
18383;SDS011;9318;48.644;9.456;2023-04-30T09:39:45;0.40;;;0.40;;
18383;SDS011;9318;48.644;9.456;2023-04-30T09:42:14;0.40;;;0.40;;
18383;SDS011;9318;48.644;9.456;2023-04-30T09:44:41;0.40;;;0.40;;
18383;SDS011;9318;48.644;9.456;2023-04-30T09:47:12;0.50;;;0.50;;
18383;SDS011;9318;48.644;9.456;2023-04-30T09:49:40;0.50;;;0.50;;
18383;SDS011;9318;48.644;9.456;2023-04-30T09:52:08;0.52;;;0.52;;
18383;SDS011;9318;48.644;9.456;2023-04-30T09:54:35;0.50;;;0.50;;
18383;SDS011;9318;48.644;9.456;2023-04-30T09:57:03;0.40;;;0.40;;
18383;SDS011;9318;48.644;9.456;2023-04-30T09:59:35;0.60;;;0.60;;
18383;SDS011;9318;48.644;9.456;2023-04-30T10:02:04;0.50;;;0.50;;
18383;SDS011;9318;48.644;9.456;2023-04-30T10:04:32;0.52;;;0.52;;
18383;SDS011;9318;48.644;9.456;2023-04-30T10:07:00;0.60;;;0.60;;
18383;SDS011;9318;48.644;9.456;2023-04-30T10:09:31;0.60;;;0.60;;
18383;SDS011;9318;48.644;9.456;2023-04-30T10:12:03;0.70;;;0.70;;
18383;SDS011;9318;48.644;9.456;2023-04-30T10:14:38;0.70;;;0.70;;
18383;SDS011;9318;48.644;9.456;2023-04-30T10:17:07;0.70;;;0.70;;
18383;SDS011;9318;48.644;9.456;2023-04-30T10:19:39;0.70;;;0.70;;
18383;SDS011;9318;48.644;9.456;2023-04-30T10:22:11;0.50;;;0.50;;
18383;SDS011;9318;48.644;9.456;2023-04-30T10:24:38;0.70;;;0.70;;
18383;SDS011;9318;48.644;9.456;2023-04-30T10:27:06;0.50;;;0.50;;
18383;SDS011;9318;48.644;9.456;2023-04-30T10:29:33;0.70;;;0.70;;
18383;SDS011;9318;48.644;9.456;2023-04-30T10:32:01;0.60;;;0.60;;
18383;SDS011;9318;48.644;9.456;2023-04-30T10:34:32;0.70;;;0.70;;
18383;SDS011;9318;48.644;9.456;2023-04-30T10:37:08;0.70;;;0.70;;
18383;SDS011;9318;48.644;9.456;2023-04-30T10:39:42;0.60;;;0.60;;
18383;SDS011;9318;48.644;9.456;2023-04-30T10:42:09;0.60;;;0.60;;
18383;SDS011;9318;48.644;9.456;2023-04-30T10:44:37;0.70;;;0.70;;
18383;SDS011;9318;48.644;9.456;2023-04-30T10:47:06;0.70;;;0.70;;
18383;SDS011;9318;48.644;9.456;2023-04-30T10:49:33;0.60;;;0.60;;
18383;SDS011;9318;48.644;9.456;2023-04-30T10:52:00;0.70;;;0.70;;
18383;SDS011;9318;48.644;9.456;2023-04-30T10:54:28;0.60;;;0.60;;
18383;SDS011;9318;48.644;9.456;2023-04-30T10:57:07;0.50;;;0.50;;
18383;SDS011;9318;48.644;9.456;2023-04-30T10:59:36;0.70;;;0.70;;
18383;SDS011;9318;48.644;9.456;2023-04-30T11:02:03;0.70;;;0.70;;
18383;SDS011;9318;48.644;9.456;2023-04-30T11:04:36;0.70;;;0.70;;
18383;SDS011;9318;48.644;9.456;2023-04-30T11:07:46;0.70;;;0.70;;
18383;SDS011;9318;48.644;9.456;2023-04-30T11:10:14;0.70;;;0.70;;
18383;SDS011;9318;48.644;9.456;2023-04-30T11:12:46;0.65;;;0.65;;
18383;SDS011;9318;48.644;9.456;2023-04-30T11:15:14;0.65;;;0.65;;
18383;SDS011;9318;48.644;9.456;2023-04-30T11:17:42;0.70;;;0.70;;
18383;SDS011;9318;48.644;9.456;2023-04-30T11:20:11;0.50;;;0.50;;
18383;SDS011;9318;48.644;9.456;2023-04-30T11:22:40;0.60;;;0.60;;
18383;SDS011;9318;48.644;9.456;2023-04-30T11:25:07;0.70;;;0.70;;
18383;SDS011;9318;48.644;9.456;2023-04-30T11:27:35;0.70;;;0.70;;
18383;SDS011;9318;48.644;9.456;2023-04-30T11:30:08;0.77;;;0.77;;
18383;SDS011;9318;48.644;9.456;2023-04-30T11:32:37;0.70;;;0.70;;
18383;SDS011;9318;48.644;9.456;2023-04-30T11:35:05;0.60;;;0.60;;
18383;SDS011;9318;48.644;9.456;2023-04-30T11:37:35;0.65;;;0.65;;
18383;SDS011;9318;48.644;9.456;2023-04-30T11:40:03;0.60;;;0.60;;
18383;SDS011;9318;48.644;9.456;2023-04-30T11:42:31;0.70;;;0.70;;
18383;SDS011;9318;48.644;9.456;2023-04-30T11:45:03;0.60;;;0.60;;
18383;SDS011;9318;48.644;9.456;2023-04-30T11:47:41;0.68;;;0.68;;
18383;SDS011;9318;48.644;9.456;2023-04-30T11:50:09;0.70;;;0.70;;
18383;SDS011;9318;48.644;9.456;2023-04-30T11:52:39;0.57;;;0.57;;
18383;SDS011;9318;48.644;9.456;2023-04-30T11:55:07;0.70;;;0.70;;
18383;SDS011;9318;48.644;9.456;2023-04-30T11:57:39;0.52;;;0.52;;
18383;SDS011;9318;48.644;9.456;2023-04-30T12:00:08;0.50;;;0.50;;
18383;SDS011;9318;48.644;9.456;2023-04-30T12:02:36;0.50;;;0.50;;
18383;SDS011;9318;48.644;9.456;2023-04-30T12:05:03;0.50;;;0.50;;
18383;SDS011;9318;48.644;9.456;2023-04-30T12:07:31;0.70;;;0.70;;
18383;SDS011;9318;48.644;9.456;2023-04-30T12:09:59;0.63;;;0.63;;
18383;SDS011;9318;48.644;9.456;2023-04-30T12:12:26;0.60;;;0.60;;
18383;SDS011;9318;48.644;9.456;2023-04-30T12:14:53;0.60;;;0.60;;
18383;SDS011;9318;48.644;9.456;2023-04-30T12:17:30;0.50;;;0.50;;
18383;SDS011;9318;48.644;9.456;2023-04-30T12:19:57;0.60;;;0.60;;
18383;SDS011;9318;48.644;9.456;2023-04-30T12:22:24;0.57;;;0.57;;
18383;SDS011;9318;48.644;9.456;2023-04-30T12:24:51;0.60;;;0.60;;
18383;SDS011;9318;48.644;9.456;2023-04-30T12:27:20;0.60;;;0.60;;
18383;SDS011;9318;48.644;9.456;2023-04-30T12:29:47;0.50;;;0.50;;
18383;SDS011;9318;48.644;9.456;2023-04-30T12:32:16;0.70;;;0.70;;
18383;SDS011;9318;48.644;9.456;2023-04-30T12:34:43;0.50;;;0.50;;
18383;SDS011;9318;48.644;9.456;2023-04-30T12:37:10;0.70;;;0.70;;
18383;SDS011;9318;48.644;9.456;2023-04-30T12:39:40;0.60;;;0.60;;
18383;SDS011;9318;48.644;9.456;2023-04-30T12:42:07;0.60;;;0.60;;
18383;SDS011;9318;48.644;9.456;2023-04-30T12:44:42;0.70;;;0.70;;
18383;SDS011;9318;48.644;9.456;2023-04-30T12:47:10;0.70;;;0.70;;
18383;SDS011;9318;48.644;9.456;2023-04-30T12:49:38;0.70;;;0.70;;
18383;SDS011;9318;48.644;9.456;2023-04-30T12:52:06;0.70;;;0.70;;
18383;SDS011;9318;48.644;9.456;2023-04-30T12:54:34;0.60;;;0.60;;
18383;SDS011;9318;48.644;9.456;2023-04-30T12:57:02;0.60;;;0.60;;
18383;SDS011;9318;48.644;9.456;2023-04-30T12:59:31;0.68;;;0.68;;
18383;SDS011;9318;48.644;9.456;2023-04-30T13:02:06;0.50;;;0.50;;
18383;SDS011;9318;48.644;9.456;2023-04-30T13:04:34;0.68;;;0.68;;
18383;SDS011;9318;48.644;9.456;2023-04-30T13:07:01;0.60;;;0.60;;
18383;SDS011;9318;48.644;9.456;2023-04-30T13:09:28;0.55;;;0.55;;
18383;SDS011;9318;48.644;9.456;2023-04-30T13:11:55;0.70;;;0.70;;
18383;SDS011;9318;48.644;9.456;2023-04-30T13:14:22;0.60;;;0.60;;
18383;SDS011;9318;48.644;9.456;2023-04-30T13:16:49;0.60;;;0.60;;
18383;SDS011;9318;48.644;9.456;2023-04-30T13:19:17;0.60;;;0.60;;
18383;SDS011;9318;48.644;9.456;2023-04-30T13:21:44;0.52;;;0.52;;
18383;SDS011;9318;48.644;9.456;2023-04-30T13:24:11;0.60;;;0.60;;
18383;SDS011;9318;48.644;9.456;2023-04-30T13:26:37;0.60;;;0.60;;
18383;SDS011;9318;48.644;9.456;2023-04-30T13:29:05;0.63;;;0.63;;
18383;SDS011;9318;48.644;9.456;2023-04-30T13:31:31;0.60;;;0.60;;
18383;SDS011;9318;48.644;9.456;2023-04-30T13:33:58;0.60;;;0.60;;
18383;SDS011;9318;48.644;9.456;2023-04-30T13:36:26;0.60;;;0.60;;
18383;SDS011;9318;48.644;9.456;2023-04-30T13:38:53;0.60;;;0.60;;
18383;SDS011;9318;48.644;9.456;2023-04-30T13:41:20;0.60;;;0.60;;
18383;SDS011;9318;48.644;9.456;2023-04-30T13:43:47;0.50;;;0.50;;
18383;SDS011;9318;48.644;9.456;2023-04-30T13:46:14;0.60;;;0.60;;
18383;SDS011;9318;48.644;9.456;2023-04-30T13:48:42;0.68;;;0.68;;
18383;SDS011;9318;48.644;9.456;2023-04-30T13:51:12;0.60;;;0.60;;
18383;SDS011;9318;48.644;9.456;2023-04-30T13:53:40;0.60;;;0.60;;
18383;SDS011;9318;48.644;9.456;2023-04-30T13:56:06;0.70;;;0.70;;
18383;SDS011;9318;48.644;9.456;2023-04-30T13:58:34;0.60;;;0.60;;
18383;SDS011;9318;48.644;9.456;2023-04-30T14:01:00;0.60;;;0.60;;
18383;SDS011;9318;48.644;9.456;2023-04-30T14:03:27;0.60;;;0.60;;
18383;SDS011;9318;48.644;9.456;2023-04-30T14:05:54;0.50;;;0.50;;
18383;SDS011;9318;48.644;9.456;2023-04-30T14:08:21;0.70;;;0.70;;
18383;SDS011;9318;48.644;9.456;2023-04-30T14:10:50;0.52;;;0.52;;
18383;SDS011;9318;48.644;9.456;2023-04-30T14:13:16;0.60;;;0.60;;
18383;SDS011;9318;48.644;9.456;2023-04-30T14:15:43;0.57;;;0.57;;
18383;SDS011;9318;48.644;9.456;2023-04-30T14:18:11;0.60;;;0.60;;
18383;SDS011;9318;48.644;9.456;2023-04-30T14:20:38;0.60;;;0.60;;
18383;SDS011;9318;48.644;9.456;2023-04-30T14:23:05;0.60;;;0.60;;
18383;SDS011;9318;48.644;9.456;2023-04-30T14:25:32;0.63;;;0.63;;
18383;SDS011;9318;48.644;9.456;2023-04-30T14:28:00;0.50;;;0.50;;
18383;SDS011;9318;48.644;9.456;2023-04-30T14:30:27;0.70;;;0.70;;
18383;SDS011;9318;48.644;9.456;2023-04-30T14:32:54;0.50;;;0.50;;
18383;SDS011;9318;48.644;9.456;2023-04-30T14:35:21;0.70;;;0.70;;
18383;SDS011;9318;48.644;9.456;2023-04-30T14:37:48;0.70;;;0.70;;
18383;SDS011;9318;48.644;9.456;2023-04-30T14:40:14;0.60;;;0.60;;
18383;SDS011;9318;48.644;9.456;2023-04-30T14:42:41;0.60;;;0.60;;
18383;SDS011;9318;48.644;9.456;2023-04-30T14:45:10;0.60;;;0.60;;
18383;SDS011;9318;48.644;9.456;2023-04-30T14:47:36;0.50;;;0.50;;
18383;SDS011;9318;48.644;9.456;2023-04-30T14:50:04;0.60;;;0.60;;
18383;SDS011;9318;48.644;9.456;2023-04-30T14:52:31;0.68;;;0.68;;
18383;SDS011;9318;48.644;9.456;2023-04-30T14:54:57;0.57;;;0.57;;
18383;SDS011;9318;48.644;9.456;2023-04-30T14:57:24;0.50;;;0.50;;
18383;SDS011;9318;48.644;9.456;2023-04-30T14:59:51;0.70;;;0.70;;
18383;SDS011;9318;48.644;9.456;2023-04-30T15:02:22;0.60;;;0.60;;
18383;SDS011;9318;48.644;9.456;2023-04-30T15:04:49;0.63;;;0.63;;
18383;SDS011;9318;48.644;9.456;2023-04-30T15:07:16;0.60;;;0.60;;
18383;SDS011;9318;48.644;9.456;2023-04-30T15:09:43;0.60;;;0.60;;